Portada
METAR-TAF:

METAR-TAF

Aeroports :

Salinas, Equador

latitud: 02-12-18S, longitud: 080-59-20W, altitud: 5 m

Observació

L'informe es va fer fa 8 hores i 10 minuts, a les 23:00 UTC
Vent 11 kt del Oest
Temperatura 28°C
Humitat 70%
Pressió 1008 hPa
Visibilitat 10 km o més
Escasses núvols a una alçada de 1000 ft

METAR: SESA 042300Z 27011KT 9999 FEW010 28/22 Q1008 RMK A2978

Hora: 02:10 (07:10 UTC)


TAF: manca

Observacions i pronòstics meteorològics de més de 4000 aeroports (METAR i TAF).

Les estacions disponibles són els punts grocs i vermells al mapa.

Posi el ratolí al punt desitjat per veure el nom de l'estació.

Feu clic per veure les observacions i els pronòstics meteorològics.

Per canviar el mapa: feu clic els botons verds amb una creu de color negre per apropar; al botó verd amb un guió per allunyar la imatge; o en les fletxes verdes per a mapes adjacents.


METAR-TAF: